createdAt,value
2019-05-20T00:00:52.888Z,99.90
2019-05-20T00:03:23.710Z,99.90
2019-05-20T00:05:55.266Z,99.90
2019-05-20T00:08:26.034Z,99.90
2019-05-20T00:10:56.529Z,99.90
2019-05-20T00:13:27.055Z,99.90
2019-05-20T00:15:57.675Z,99.90
2019-05-20T00:18:28.115Z,99.90
2019-05-20T00:20:58.637Z,99.90
2019-05-20T00:23:29.057Z,99.90
2019-05-20T00:25:59.631Z,99.90
2019-05-20T00:28:30.116Z,99.90
2019-05-20T00:31:00.545Z,99.90
2019-05-20T00:33:30.975Z,99.90
2019-05-20T00:36:01.395Z,99.90
2019-05-20T00:38:31.826Z,99.90
2019-05-20T00:41:02.557Z,99.90
2019-05-20T00:43:32.989Z,99.90
2019-05-20T00:46:03.512Z,99.90
2019-05-20T00:48:33.944Z,99.90
2019-05-20T00:51:05.391Z,99.90
2019-05-20T00:53:35.820Z,99.90
2019-05-20T00:56:06.350Z,99.90
2019-05-20T00:58:36.924Z,99.90
2019-05-20T01:03:37.014Z,99.90
2019-05-20T01:06:07.598Z,99.90
2019-05-20T01:08:38.235Z,99.90
2019-05-20T01:11:08.704Z,99.90
2019-05-20T01:13:39.322Z,99.90
2019-05-20T01:16:10.047Z,99.90
2019-05-20T01:18:40.519Z,99.90
2019-05-20T01:21:11.037Z,99.90
2019-05-20T01:23:41.443Z,99.90
2019-05-20T01:26:11.886Z,99.90
2019-05-20T01:28:42.457Z,99.90
2019-05-20T01:31:13.452Z,99.90
2019-05-20T01:33:43.880Z,99.90
2019-05-20T01:36:14.451Z,99.90
2019-05-20T01:38:45.040Z,99.90
2019-05-20T01:41:15.466Z,99.90
2019-05-20T01:43:45.895Z,99.90
2019-05-20T01:46:16.319Z,99.90
2019-05-20T01:48:46.746Z,99.90
2019-05-20T01:51:18.213Z,99.90
2019-05-20T01:53:48.627Z,99.90
2019-05-20T01:56:19.050Z,99.90
2019-05-20T01:58:49.478Z,99.90
2019-05-20T02:01:19.966Z,99.90
2019-05-20T02:03:50.438Z,99.90
2019-05-20T02:06:20.967Z,99.90
2019-05-20T02:08:51.806Z,99.90
2019-05-20T02:11:22.433Z,99.90
2019-05-20T02:14:15.082Z,99.90
2019-05-20T02:16:45.512Z,99.90
2019-05-20T02:19:15.948Z,99.90
2019-05-20T02:21:46.471Z,99.90
2019-05-20T02:24:16.893Z,99.90
2019-05-20T02:26:47.320Z,99.90
2019-05-20T02:29:17.746Z,99.90
2019-05-20T02:31:48.229Z,99.90
2019-05-20T02:34:18.703Z,99.90
2019-05-20T02:36:49.132Z,99.90
2019-05-20T02:39:19.558Z,99.90
2019-05-20T02:41:49.992Z,99.90
2019-05-20T02:44:20.515Z,99.90
2019-05-20T02:46:51.153Z,99.90
2019-05-20T02:49:21.576Z,99.90
2019-05-20T02:51:51.999Z,99.90
2019-05-20T02:54:22.431Z,99.90
2019-05-20T02:56:52.976Z,99.90
2019-05-20T02:59:23.484Z,99.90
2019-05-20T03:01:54.084Z,99.90
2019-05-20T03:04:24.587Z,99.90
2019-05-20T03:06:55.142Z,99.90
2019-05-20T03:09:25.860Z,99.90
2019-05-20T03:11:56.337Z,99.90
2019-05-20T03:14:26.766Z,99.90
2019-05-20T03:16:57.195Z,99.90
2019-05-20T03:19:27.921Z,99.90
2019-05-20T03:21:59.991Z,99.90
2019-05-20T03:24:30.416Z,99.90
2019-05-20T03:27:00.856Z,99.90
2019-05-20T03:29:31.375Z,99.90
2019-05-20T03:32:01.806Z,99.90
2019-05-20T03:34:47.858Z,99.90
2019-05-20T03:37:04.499Z,99.90
2019-05-20T03:39:35.135Z,99.90
2019-05-20T03:42:05.661Z,99.90
2019-05-20T03:44:36.086Z,99.90
2019-05-20T03:47:06.526Z,99.90
2019-05-20T03:49:36.939Z,99.90
2019-05-20T03:52:07.372Z,99.90
2019-05-20T03:54:38.004Z,99.90
2019-05-20T03:57:08.630Z,99.90
2019-05-20T03:59:39.075Z,99.90
2019-05-20T04:02:09.494Z,99.90
2019-05-20T04:04:39.921Z,99.90
2019-05-20T04:07:10.384Z,99.90
2019-05-20T04:09:40.912Z,99.90
2019-05-20T04:12:11.397Z,99.90
2019-05-20T04:14:41.828Z,99.90
2019-05-20T04:17:12.425Z,99.90
2019-05-20T04:19:44.021Z,99.90
2019-05-20T04:22:14.435Z,99.90
2019-05-20T04:24:44.862Z,99.90
2019-05-20T04:27:15.391Z,99.90
2019-05-20T04:29:45.926Z,99.90
2019-05-20T04:32:16.355Z,99.90
2019-05-20T04:34:46.785Z,99.90
2019-05-20T04:37:17.368Z,99.90
2019-05-20T04:39:47.839Z,99.90
2019-05-20T04:42:18.263Z,99.90
2019-05-20T04:44:48.692Z,99.90
2019-05-20T04:47:19.200Z,99.90
2019-05-20T04:49:49.752Z,99.90
2019-05-20T04:52:20.174Z,99.90
2019-05-20T04:54:50.610Z,99.90
2019-05-20T04:57:21.148Z,99.90
2019-05-20T04:59:51.764Z,99.90
2019-05-20T05:02:22.191Z,99.90
2019-05-20T05:04:52.791Z,99.90
2019-05-20T05:07:25.137Z,99.90
2019-05-20T05:09:55.766Z,99.90
2019-05-20T05:12:26.258Z,99.90
2019-05-20T05:14:56.783Z,99.90
2019-05-20T05:17:27.312Z,99.90
2019-05-20T05:19:58.759Z,99.90
2019-05-20T05:22:29.289Z,99.90
2019-05-20T05:24:59.718Z,99.90
2019-05-20T05:27:30.145Z,99.90
2019-05-20T05:30:01.626Z,99.90
2019-05-20T05:32:45.063Z,99.90
2019-05-20T05:35:19.141Z,99.90
2019-05-20T05:37:49.747Z,99.90
2019-05-20T05:40:21.865Z,99.90
2019-05-20T05:42:52.367Z,99.90
2019-05-20T05:45:29.186Z,99.90
2019-05-20T05:47:58.659Z,99.90
2019-05-20T05:50:31.634Z,99.90
2019-05-20T05:53:02.070Z,99.90
2019-05-20T05:55:32.488Z,99.90
2019-05-20T05:58:02.921Z,99.90
2019-05-20T06:00:33.350Z,99.90
2019-05-20T06:03:03.791Z,99.90
2019-05-20T06:05:34.201Z,99.90
2019-05-20T06:08:04.864Z,99.90
2019-05-20T06:10:36.031Z,99.90
2019-05-20T06:13:06.611Z,99.90
2019-05-20T06:15:37.031Z,99.90
2019-05-20T06:18:07.466Z,99.90
2019-05-20T06:20:38.912Z,99.90
2019-05-20T06:23:09.347Z,99.90
2019-05-20T06:25:39.772Z,99.90
2019-05-20T06:28:10.292Z,99.90
2019-05-20T06:30:44.347Z,99.90
2019-05-20T06:33:15.038Z,99.90
2019-05-20T06:35:45.670Z,99.90
2019-05-20T06:38:35.183Z,99.90
2019-05-20T06:41:07.236Z,99.90
2019-05-20T06:46:07.655Z,99.90
2019-05-20T06:48:38.083Z,99.90
2019-05-20T06:51:09.545Z,99.90
2019-05-20T06:53:39.976Z,99.90
2019-05-20T06:58:40.035Z,99.90
2019-05-20T07:01:10.543Z,99.90
2019-05-20T07:06:11.201Z,99.90
2019-05-20T07:08:41.995Z,99.90
2019-05-20T07:11:12.775Z,99.90
2019-05-20T07:13:43.243Z,99.90
2019-05-20T07:16:13.723Z,99.90
2019-05-20T07:18:44.125Z,99.90
2019-05-20T07:21:14.553Z,99.90
2019-05-20T07:23:45.073Z,99.90
2019-05-20T07:26:15.631Z,99.90
2019-05-20T07:28:46.059Z,99.90
2019-05-20T07:31:16.817Z,99.90
2019-05-20T07:33:47.408Z,99.90
2019-05-20T07:36:18.390Z,99.90
2019-05-20T07:38:49.021Z,99.90
2019-05-20T07:41:20.052Z,99.90
2019-05-20T07:43:50.549Z,99.90
2019-05-20T07:46:21.186Z,99.90
2019-05-20T07:48:52.343Z,99.90
2019-05-20T07:51:24.594Z,99.90
2019-05-20T07:53:56.466Z,99.90
2019-05-20T07:56:29.543Z,99.90
2019-05-20T07:59:02.707Z,99.10
2019-05-20T08:01:33.553Z,97.10
2019-05-20T08:04:04.022Z,94.60
2019-05-20T08:06:34.631Z,90.60
2019-05-20T08:09:06.556Z,88.80
2019-05-20T08:11:37.434Z,88.20
2019-05-20T08:14:08.036Z,87.70
2019-05-20T08:16:38.491Z,87.20
2019-05-20T08:19:08.918Z,89.10
2019-05-20T08:21:40.371Z,91.90
2019-05-20T08:24:10.899Z,92.40
2019-05-20T08:26:41.368Z,93.70
2019-05-20T08:29:11.931Z,95.30
2019-05-20T08:31:42.425Z,99.10
2019-05-20T08:34:12.909Z,99.90
2019-05-20T08:36:43.344Z,99.90
2019-05-20T08:39:13.835Z,99.20
2019-05-20T08:41:44.295Z,95.60
2019-05-20T08:44:14.767Z,93.90
2019-05-20T08:46:45.250Z,95.80
2019-05-20T08:49:17.119Z,98.80
2019-05-20T08:51:48.567Z,99.90
2019-05-20T08:54:19.096Z,98.50
2019-05-20T08:56:49.607Z,97.20
2019-05-20T08:59:20.092Z,97.30
2019-05-20T09:01:50.573Z,96.60
2019-05-20T09:04:21.001Z,95.00
2019-05-20T09:06:51.443Z,89.80
2019-05-20T09:09:21.927Z,82.20
2019-05-20T09:11:52.712Z,86.90
2019-05-20T09:14:23.402Z,92.60
2019-05-20T09:16:53.842Z,94.50
2019-05-20T09:19:24.319Z,94.90
2019-05-20T09:21:54.811Z,95.00
2019-05-20T09:24:25.237Z,97.40
2019-05-20T09:26:55.668Z,97.60
2019-05-20T09:29:32.896Z,93.50
2019-05-20T09:32:03.996Z,91.80
2019-05-20T09:34:34.539Z,90.80
2019-05-20T09:37:05.071Z,88.70
2019-05-20T09:39:35.474Z,87.90
2019-05-20T09:42:05.905Z,83.60
2019-05-20T09:44:36.342Z,80.00
2019-05-20T09:47:06.802Z,72.20
2019-05-20T09:49:37.318Z,71.20
2019-05-20T09:52:07.817Z,72.60
2019-05-20T09:54:38.245Z,79.80
2019-05-20T09:57:08.675Z,79.50
2019-05-20T09:59:43.490Z,75.30
2019-05-20T10:02:11.171Z,70.00
2019-05-20T10:04:41.582Z,69.50
2019-05-20T10:07:12.027Z,70.00
2019-05-20T10:09:42.445Z,70.50
2019-05-20T10:12:13.079Z,70.30
2019-05-20T10:14:43.652Z,73.30
2019-05-20T10:17:14.306Z,76.40
2019-05-20T10:19:44.773Z,84.00
2019-05-20T10:22:15.196Z,85.10
2019-05-20T10:24:45.623Z,87.70
2019-05-20T10:27:16.049Z,89.40
2019-05-20T10:29:46.585Z,89.00
2019-05-20T10:32:17.029Z,87.10
2019-05-20T10:34:47.480Z,87.50
2019-05-20T10:37:17.965Z,86.10
2019-05-20T10:39:48.389Z,88.40
2019-05-20T10:42:18.818Z,89.40
2019-05-20T10:44:49.247Z,89.70
2019-05-20T10:47:19.693Z,91.90
2019-05-20T10:49:51.168Z,93.00
2019-05-20T10:52:21.822Z,94.90
2019-05-20T10:54:52.386Z,96.30
2019-05-20T10:57:22.836Z,97.10
2019-05-20T10:59:53.332Z,98.50
2019-05-20T11:02:23.794Z,99.70
2019-05-20T11:04:54.356Z,99.10
2019-05-20T11:07:25.033Z,98.40
2019-05-20T11:09:55.459Z,97.90
2019-05-20T11:12:25.932Z,96.80
2019-05-20T11:14:56.461Z,96.80
2019-05-20T11:17:26.937Z,94.50
2019-05-20T11:19:58.455Z,93.60
2019-05-20T11:22:28.914Z,92.80
2019-05-20T11:24:59.354Z,92.60
2019-05-20T11:27:29.984Z,92.40
2019-05-20T11:30:00.413Z,91.90
2019-05-20T11:32:30.830Z,91.70
2019-05-20T11:35:01.443Z,90.60
2019-05-20T11:37:32.102Z,88.60
2019-05-20T11:40:02.966Z,80.80
2019-05-20T11:42:33.879Z,76.30
2019-05-20T11:45:04.310Z,83.00
2019-05-20T11:47:34.744Z,87.40
2019-05-20T11:50:05.919Z,88.90
2019-05-20T11:52:38.295Z,91.00
2019-05-20T11:55:08.958Z,92.20
2019-05-20T11:57:39.407Z,88.00
2019-05-20T12:00:15.371Z,69.80
2019-05-20T12:02:45.793Z,61.80
2019-05-20T12:05:16.321Z,54.20
2019-05-20T12:07:46.753Z,46.60
2019-05-20T12:10:17.451Z,43.70
2019-05-20T12:12:47.983Z,39.80
2019-05-20T12:15:18.651Z,37.70
2019-05-20T12:17:49.074Z,36.00
2019-05-20T12:20:19.875Z,38.20
2019-05-20T12:22:50.401Z,40.80
2019-05-20T12:25:20.862Z,40.30
2019-05-20T12:27:51.300Z,41.30
2019-05-20T12:30:23.267Z,41.70
2019-05-20T12:33:17.118Z,41.80
2019-05-20T12:35:27.066Z,39.50
2019-05-20T12:37:57.492Z,37.90
2019-05-20T12:40:27.932Z,36.10
2019-05-20T12:42:58.357Z,33.50
2019-05-20T12:45:28.805Z,32.30
2019-05-20T12:47:59.211Z,30.00
2019-05-20T12:50:30.680Z,30.20
2019-05-20T12:53:01.092Z,29.50
2019-05-20T12:55:31.559Z,28.30
2019-05-20T12:58:02.046Z,29.20
2019-05-20T13:00:33.538Z,28.00
2019-05-20T13:03:03.927Z,29.30
2019-05-20T13:05:34.353Z,28.70
2019-05-20T13:08:05.160Z,28.70
2019-05-20T13:10:36.125Z,28.10
2019-05-20T13:13:06.595Z,28.10
2019-05-20T13:15:37.227Z,28.10
2019-05-20T13:18:07.719Z,28.40
2019-05-20T13:20:38.450Z,28.20
2019-05-20T13:23:11.460Z,28.60
2019-05-20T13:25:41.625Z,29.20
2019-05-20T13:28:12.074Z,30.00
2019-05-20T13:30:42.511Z,29.60
2019-05-20T13:33:12.940Z,30.90
2019-05-20T13:35:43.653Z,31.40
2019-05-20T13:38:14.257Z,30.90
2019-05-20T13:40:47.083Z,30.70
2019-05-20T13:43:17.608Z,31.80
2019-05-20T13:45:48.573Z,31.60
2019-05-20T13:48:19.103Z,32.40
2019-05-20T13:50:52.698Z,31.70
2019-05-20T13:53:23.283Z,31.40
2019-05-20T13:55:53.748Z,30.90
2019-05-20T13:58:24.219Z,29.60
2019-05-20T14:00:54.689Z,31.30
2019-05-20T14:03:25.126Z,32.20
2019-05-20T14:05:55.555Z,31.00
2019-05-20T14:08:25.983Z,31.60
2019-05-20T14:11:04.753Z,31.40
2019-05-20T14:13:34.472Z,32.00
2019-05-20T14:16:07.034Z,32.10
2019-05-20T14:18:37.519Z,31.30
2019-05-20T14:21:08.158Z,31.40
2019-05-20T14:23:38.579Z,32.00
2019-05-20T14:26:09.007Z,32.30
2019-05-20T14:28:39.589Z,31.70
2019-05-20T14:31:10.073Z,32.40
2019-05-20T14:33:40.496Z,32.00
2019-05-20T14:36:11.012Z,32.00
2019-05-20T14:38:41.857Z,32.60
2019-05-20T14:41:21.430Z,31.80
2019-05-20T14:43:45.775Z,31.70
2019-05-20T14:46:16.209Z,32.00
2019-05-20T14:48:46.641Z,32.30
2019-05-20T14:51:17.272Z,33.10
2019-05-20T14:53:47.695Z,32.80
2019-05-20T14:56:18.125Z,31.60
2019-05-20T14:58:48.549Z,31.20
2019-05-20T15:01:19.024Z,30.20
2019-05-20T15:03:49.537Z,30.90
2019-05-20T15:06:19.950Z,31.10
2019-05-20T15:08:50.662Z,32.30
2019-05-20T15:11:37.054Z,33.50
2019-05-20T15:13:54.381Z,35.20
2019-05-20T15:16:25.120Z,34.90
2019-05-20T15:18:55.549Z,33.70
2019-05-20T15:21:29.443Z,33.80
2019-05-20T15:23:58.054Z,35.60
2019-05-20T15:26:28.467Z,36.70
2019-05-20T15:28:58.948Z,39.70
2019-05-20T15:31:29.493Z,40.40
2019-05-20T15:33:59.980Z,42.30
2019-05-20T15:36:30.395Z,43.20
2019-05-20T15:39:00.916Z,45.20
2019-05-20T15:41:33.353Z,46.40
2019-05-20T15:44:03.979Z,49.80
2019-05-20T15:46:34.512Z,52.40
2019-05-20T15:49:06.563Z,55.80
2019-05-20T15:51:38.224Z,56.90
2019-05-20T15:54:08.695Z,58.30
2019-05-20T15:56:39.177Z,63.10
2019-05-20T15:59:09.650Z,66.10
2019-05-20T16:01:41.091Z,69.70
2019-05-20T16:04:11.738Z,72.30
2019-05-20T16:06:42.392Z,75.30
2019-05-20T16:09:17.073Z,77.10
2019-05-20T16:11:46.089Z,81.80
2019-05-20T16:14:16.722Z,86.50
2019-05-20T16:16:47.456Z,91.50
2019-05-20T16:19:17.887Z,93.00
2019-05-20T16:21:49.659Z,94.70
2019-05-20T16:24:20.167Z,95.10
2019-05-20T16:26:50.594Z,95.90
2019-05-20T16:29:21.330Z,97.60
2019-05-20T16:31:51.858Z,98.50
2019-05-20T16:34:22.500Z,99.40
2019-05-20T16:36:52.916Z,99.90
2019-05-20T16:39:23.342Z,99.90
2019-05-20T16:41:53.773Z,99.90
2019-05-20T16:44:25.221Z,99.90
2019-05-20T16:46:55.870Z,99.90
2019-05-20T16:49:26.289Z,99.90
2019-05-20T16:51:56.730Z,99.90
2019-05-20T16:54:27.668Z,99.90
2019-05-20T16:56:58.222Z,99.90
2019-05-20T16:59:29.421Z,99.90
2019-05-20T17:01:59.847Z,99.90
2019-05-20T17:04:30.276Z,99.90
2019-05-20T17:07:00.912Z,99.90
2019-05-20T17:09:31.708Z,99.90
2019-05-20T17:12:02.499Z,99.90
2019-05-20T17:14:33.066Z,99.90
2019-05-20T17:17:04.638Z,99.90
2019-05-20T17:19:35.098Z,99.90
2019-05-20T17:22:05.995Z,99.90
2019-05-20T17:24:36.456Z,99.90
2019-05-20T17:27:07.096Z,99.90
2019-05-20T17:29:37.665Z,99.90
2019-05-20T17:32:08.045Z,99.90
2019-05-20T17:34:39.699Z,99.90
2019-05-20T17:37:10.332Z,99.90
2019-05-20T17:39:40.746Z,99.90
2019-05-20T17:42:11.175Z,99.90
2019-05-20T17:44:41.617Z,99.90
2019-05-20T17:47:12.346Z,99.90
2019-05-20T17:49:42.979Z,99.90
2019-05-20T17:52:13.396Z,99.90
2019-05-20T17:54:43.834Z,99.90
2019-05-20T17:57:14.435Z,99.90
2019-05-20T17:59:44.895Z,99.90
2019-05-20T18:02:15.420Z,99.90
2019-05-20T18:04:46.052Z,99.90
2019-05-20T18:07:16.486Z,99.90
2019-05-20T18:09:49.580Z,99.90
2019-05-20T18:12:20.125Z,99.90
2019-05-20T18:14:55.038Z,99.90
2019-05-20T18:17:25.807Z,99.90
2019-05-20T18:19:56.403Z,99.90
2019-05-20T18:24:56.611Z,99.90
2019-05-20T18:27:27.610Z,99.90
2019-05-20T18:29:58.104Z,99.90
2019-05-20T18:32:28.574Z,99.90
2019-05-20T18:34:59.058Z,99.90
2019-05-20T18:47:29.555Z,99.90
2019-05-20T18:49:59.984Z,99.90
2019-05-20T18:52:30.415Z,99.90
2019-05-20T18:55:00.837Z,99.90
2019-05-20T18:57:31.443Z,99.90
2019-05-20T19:00:02.097Z,99.90
2019-05-20T19:02:32.798Z,99.90
2019-05-20T19:05:03.263Z,99.90
2019-05-20T19:07:33.689Z,99.90
2019-05-20T19:12:35.710Z,99.90
2019-05-20T19:15:06.989Z,99.90
2019-05-20T19:17:37.834Z,99.90
2019-05-20T19:20:08.691Z,99.90
2019-05-20T19:22:39.220Z,99.90
2019-05-20T19:25:09.884Z,99.90
2019-05-20T19:27:40.383Z,99.90
2019-05-20T19:30:11.642Z,99.90
2019-05-20T19:32:42.071Z,99.90
2019-05-20T19:35:12.790Z,99.90
2019-05-20T19:37:43.685Z,99.90
2019-05-20T19:40:14.360Z,99.90
2019-05-20T19:42:44.888Z,99.90
2019-05-20T19:45:15.523Z,99.90
2019-05-20T19:47:45.950Z,99.90
2019-05-20T19:50:17.408Z,99.90
2019-05-20T19:52:48.033Z,99.90
2019-05-20T19:55:19.179Z,99.90
2019-05-20T19:57:52.685Z,99.90
2019-05-20T20:00:23.204Z,99.90
2019-05-20T20:02:53.631Z,99.90
2019-05-20T20:05:24.330Z,99.90
2019-05-20T20:07:54.895Z,99.90
2019-05-20T20:10:26.345Z,99.90
2019-05-20T20:12:56.779Z,99.90
2019-05-20T20:15:27.276Z,99.90
2019-05-20T20:17:57.776Z,99.90
2019-05-20T20:20:28.362Z,99.90
2019-05-20T20:22:58.946Z,99.90
2019-05-20T20:25:29.419Z,99.90
2019-05-20T20:27:59.857Z,99.90
2019-05-20T20:30:30.375Z,99.90
2019-05-20T20:33:00.821Z,99.90
2019-05-20T20:35:38.078Z,99.90
2019-05-20T20:38:03.294Z,99.90
2019-05-20T20:40:34.746Z,99.90
2019-05-20T20:43:05.172Z,99.90
2019-05-20T20:45:35.700Z,99.90
2019-05-20T20:48:06.272Z,99.90
2019-05-20T20:50:36.832Z,99.90
2019-05-20T20:53:07.292Z,99.90
2019-05-20T20:55:37.869Z,99.90
2019-05-20T20:58:08.346Z,99.90
2019-05-20T21:05:38.090Z,99.90
2019-05-20T21:08:08.725Z,99.90
2019-05-20T21:10:39.150Z,99.90
2019-05-20T21:13:09.735Z,99.90
2019-05-20T21:15:40.319Z,99.90
2019-05-20T21:18:10.891Z,99.90
2019-05-20T21:20:41.743Z,99.90
2019-05-20T21:23:12.309Z,99.90
2019-05-20T21:25:42.851Z,99.90
2019-05-20T21:28:13.292Z,99.90
2019-05-20T21:30:43.797Z,99.90
2019-05-20T21:33:14.243Z,99.90
2019-05-20T21:35:45.441Z,99.90
2019-05-20T21:38:16.206Z,99.90
2019-05-20T21:40:47.655Z,99.90
2019-05-20T21:45:47.585Z,99.90
2019-05-20T21:48:19.211Z,99.90
2019-05-20T21:50:49.840Z,99.90
2019-05-20T21:53:20.300Z,99.90
2019-05-20T21:55:50.751Z,99.90
2019-05-20T21:58:21.159Z,99.90
2019-05-20T22:00:54.589Z,99.90
2019-05-20T22:03:25.447Z,99.90
2019-05-20T22:05:56.030Z,99.90
2019-05-20T22:08:26.445Z,99.90
2019-05-20T22:10:57.897Z,99.90
2019-05-20T22:15:57.828Z,99.90
2019-05-20T22:18:28.405Z,99.90
2019-05-20T22:20:59.059Z,99.90
2019-05-20T22:23:43.551Z,99.90
2019-05-20T22:26:13.982Z,99.90
2019-05-20T22:28:44.402Z,99.90
2019-05-20T22:31:15.858Z,99.90
2019-05-20T22:33:46.283Z,99.90
2019-05-20T22:36:16.913Z,99.90
2019-05-20T22:38:49.683Z,99.90
2019-05-20T22:41:20.194Z,99.90
2019-05-20T22:43:50.729Z,99.90
2019-05-20T22:46:21.303Z,99.90
2019-05-20T22:48:51.709Z,99.90
2019-05-20T22:51:23.250Z,99.90
2019-05-20T22:53:53.791Z,99.90
2019-05-20T22:56:24.222Z,99.90
2019-05-20T22:58:54.646Z,99.90
2019-05-20T23:01:25.086Z,99.90
2019-05-20T23:03:56.708Z,99.90
2019-05-20T23:06:27.261Z,99.90
2019-05-20T23:08:57.763Z,99.90
2019-05-20T23:11:28.215Z,99.90
2019-05-20T23:13:58.647Z,99.90
2019-05-20T23:16:29.070Z,99.90
2019-05-20T23:18:59.564Z,99.90
2019-05-20T23:21:30.195Z,99.90
2019-05-20T23:24:00.660Z,99.90
2019-05-20T23:26:31.088Z,99.90
2019-05-20T23:29:02.649Z,99.90
2019-05-20T23:31:33.065Z,99.90
2019-05-20T23:34:12.451Z,99.90
2019-05-20T23:36:35.554Z,99.90
2019-05-20T23:39:07.579Z,99.90
2019-05-20T23:41:38.057Z,99.90
2019-05-20T23:44:08.476Z,99.90
2019-05-20T23:46:38.903Z,99.90
2019-05-20T23:49:09.329Z,99.90
2019-05-20T23:51:39.757Z,99.90
2019-05-20T23:54:10.247Z,99.90
2019-05-20T23:56:40.716Z,99.90
2019-05-20T23:59:11.139Z,99.90
